Portada
METAR-TAF:

METAR-TAF

Aeropuertos :

Tabarka, Túnez

latitud: 36-57N, longitud: 008-45E, altitud: 20 m

Observación

El informe se hizo hace 53 minutos, a las 13:00 UTC
Viento 10 kt del norte-noroeste
Temperatura 24°C
Humedad 65%
Presión 1020 hPa
Visibilidad 10 km o más
Nubes dispersas a una altura de 2000 ft

METAR: DTKA 131300Z 34010KT 9999 SCT020 24/17 Q1020 NOSIG

Hora: 14:53 (13:53 UTC)

Pronóstico

El informe se hizo hace 1 hora y 53 minutos, a las 12:00 UTC
Pronóstico válido del 13 a las 13 UTC al 13 a las 22 UTC
Viento 10 kt del norte
Visibilidad 10 km o más
Nubes dispersas a una altura de 2000 ft

TAF: DTKA 131200Z 1313/1322 36010KT 9999 SCT020

Observaciones y pronósticos meteorológicos de más de 4000 aeropuertos (mensajes METAR y TAF).

Los puntos amarillos y rojos representan las estaciones disponibles.

Ponga el ratón en el punto deseado para ver el nombre de la estación.

Haga clic para ver las observaciones y los pronósticos meteorológicos.

Para cambiar el mapa : haga clic en los botones verdes con una cruz de color negro para hacer un zoom, en el botón verde con un guión para alejar o en las flechas verdes para mapas adyacentes.


METAR-TAF: